Time;durP1;ratioP1;P1;durP2;ratioP2;P2;SDS_P1;SDS_P2;PMS_P1;PMS_P2;Temp;Humidity;BMP_temperature;BMP_pressure;BME280_temperature;BME280_humidity;BME280_pressure;Samples;Min_cycle;Max_cycle;Signal;HPM_P1;HPM_P2
2023/07/03 00:00:46;;;;;;;;;;;;;;;19.39;66.60;92593.16;2068552;69;20486;-79
2023/07/03 00:03:15;;;;;;;;;;;;;;;19.29;67.32;92587.16;2055459;69;20062;-78
2023/07/03 00:05:43;;;;;;;;;;;;;;;19.26;67.19;92582.81;2065471;69;20450;-78
2023/07/03 00:08:09;;;;;;;;;;;;;;;19.24;66.59;92582.72;2055219;70;20146;-80
2023/07/03 00:10:34;;;;;;;;;;;;;;;19.32;65.99;92582.97;2055270;70;20047;-79
2023/07/03 00:13:00;;;;;;;;;;;;;;;19.15;67.47;92584.66;2055156;70;20099;-77
2023/07/03 00:18:53;;;;;;;;;;;;;;;19.21;67.17;92586.94;2055234;69;20253;-80
2023/07/03 00:21:21;;;;;;;;;;;;;;;19.28;66.22;92580.00;2055291;70;20200;-78
2023/07/03 00:23:47;;;;;;;;;;;;;;;19.24;66.11;92580.63;2068621;69;20060;-79
2023/07/03 00:26:12;;;;;;;;;;;;;;;19.17;67.04;92587.56;2065561;69;20050;-80
2023/07/03 00:28:38;;;;;;;;;;;;;;;19.15;66.45;92583.91;2055173;70;20050;-80
2023/07/03 00:31:05;;;;;;;;;;;;;;;19.11;67.19;92592.38;2055365;70;20050;-80
2023/07/03 00:33:30;;;;;;;;;;;;;;;18.98;68.24;92577.78;2055268;70;20062;-78
2023/07/03 00:35:55;;;;;;;;;;;;;;;18.94;68.69;92585.50;2055570;70;20054;-77
2023/07/03 00:38:21;;;;;;;;;;;;;;;18.88;68.42;92574.66;2055802;70;20070;-77
2023/07/03 00:40:46;;;;;;;;;;;;;;;18.83;68.17;92578.78;2055357;70;20054;-78
2023/07/03 00:43:17;;;;;;;;;;;;;;;18.75;68.44;92575.69;2055468;70;20054;-78
2023/07/03 00:45:47;;;;;;;;;;;;;;;18.72;68.08;92582.72;2068040;69;20054;-78
2023/07/03 00:48:15;;;;;;;;;;;;;;;18.58;68.40;92591.56;2054991;69;20054;-77
2023/07/03 00:50:40;;;;;;;;;;;;;;;18.64;67.71;92588.88;2068688;69;20061;-77
2023/07/03 00:53:06;;;;;;;;;;;;;;;18.65;67.26;92583.94;2068715;69;20149;-77
2023/07/03 00:55:32;;;;;;;;;;;;;;;18.56;66.93;92585.81;2068803;69;20085;-77
2023/07/03 00:58:00;;;;;;;;;;;;;;;18.51;67.89;92587.81;2055963;70;20498;-77
2023/07/03 01:00:32;;;;;;;;;;;;;;;18.42;67.80;92582.56;2055936;69;20494;-76
2023/07/03 01:03:23;;;;;;;;;;;;;;;18.42;67.61;92591.09;2055795;69;20103;-77
2023/07/03 01:05:51;;;;;;;;;;;;;;;18.34;68.01;92585.88;2056665;69;20065;-77
2023/07/03 01:11:50;;;;;;;;;;;;;;;17.94;69.52;92594.63;2055771;69;20124;-76
2023/07/03 01:14:18;;;;;;;;;;;;;;;18.07;69.01;92592.16;2068486;69;20058;-79
2023/07/03 01:16:45;;;;;;;;;;;;;;;18.12;68.36;92593.75;2068711;69;20062;-77
2023/07/03 01:19:14;;;;;;;;;;;;;;;18.13;68.63;92593.06;2068762;69;20066;-77
2023/07/03 01:21:47;;;;;;;;;;;;;;;18.04;68.61;92599.91;2055739;70;20147;-77
2023/07/03 01:24:15;;;;;;;;;;;;;;;17.98;69.12;92591.91;2068988;69;20057;-76
2023/07/03 01:26:42;;;;;;;;;;;;;;;17.95;69.51;92598.91;2056040;70;20046;-77
2023/07/03 01:29:18;;;;;;;;;;;;;;;18.03;68.62;92593.47;2055703;70;20153;-80
2023/07/03 01:31:44;;;;;;;;;;;;;;;17.91;68.80;92604.47;2069160;69;20123;-78
2023/07/03 01:34:11;;;;;;;;;;;;;;;17.94;68.49;92591.78;2055764;70;20050;-78
2023/07/03 01:36:47;;;;;;;;;;;;;;;18.08;67.84;92597.19;2055300;69;20495;-77
2023/07/03 01:42:41;;;;;;;;;;;;;;;17.92;69.45;92608.06;2055776;69;20049;-78
2023/07/03 01:45:08;;;;;;;;;;;;;;;17.92;69.21;92597.41;2056008;69;20493;-78
2023/07/03 01:47:37;;;;;;;;;;;;;;;17.94;69.13;92605.28;2055899;70;20075;-79
2023/07/03 01:50:08;;;;;;;;;;;;;;;17.84;69.69;92599.28;2069197;69;20058;-78
2023/07/03 01:52:38;;;;;;;;;;;;;;;17.86;70.25;92605.00;2055992;69;20141;-79
2023/07/03 01:55:04;;;;;;;;;;;;;;;17.84;69.66;92602.84;2068768;69;20054;-79
2023/07/03 01:57:41;;;;;;;;;;;;;;;17.85;70.15;92598.59;2055757;70;20120;-80
2023/07/03 02:00:10;;;;;;;;;;;;;;;17.96;69.08;92596.78;2068462;69;20054;-80
2023/07/03 02:02:39;;;;;;;;;;;;;;;17.96;69.96;92599.63;2055567;69;20142;-79
2023/07/03 02:05:08;;;;;;;;;;;;;;;17.85;70.92;92600.72;2068760;69;20057;-79
2023/07/03 02:07:33;;;;;;;;;;;;;;;17.92;70.25;92605.22;2068676;69;20101;-80
2023/07/03 02:09:59;;;;;;;;;;;;;;;18.08;68.28;92593.63;2055857;70;20090;-80
2023/07/03 02:12:29;;;;;;;;;;;;;;;18.05;68.86;92598.50;2068865;69;20146;-79
2023/07/03 02:14:59;;;;;;;;;;;;;;;17.99;68.85;92598.31;2069039;69;20493;-80
2023/07/03 02:20:54;;;;;;;;;;;;;;;17.96;69.47;92591.84;2055771;69;20089;-77
2023/07/03 02:23:21;;;;;;;;;;;;;;;17.79;70.23;92589.88;2055856;69;20054;-77
2023/07/03 02:25:48;;;;;;;;;;;;;;;17.70;70.70;92588.13;2055881;70;20050;-77
2023/07/03 02:28:16;;;;;;;;;;;;;;;17.84;69.73;92588.59;2068955;69;20062;-76
2023/07/03 02:30:45;;;;;;;;;;;;;;;17.84;70.03;92593.56;2068714;69;20548;-79
2023/07/03 02:33:11;;;;;;;;;;;;;;;17.71;70.50;92590.28;2055516;70;20047;-79
2023/07/03 02:35:41;;;;;;;;;;;;;;;17.88;69.00;92590.84;2055815;69;20504;-79
2023/07/03 02:38:08;;;;;;;;;;;;;;;17.82;71.47;92602.03;2068736;69;20054;-78
2023/07/03 02:40:34;;;;;;;;;;;;;;;17.81;71.10;92594.88;2068266;69;20058;-81
2023/07/03 02:43:00;;;;;;;;;;;;;;;17.79;70.69;92581.31;2068607;69;20489;-80
2023/07/03 02:45:26;;;;;;;;;;;;;;;17.81;71.14;92598.47;2068329;69;20061;-80
2023/07/03 02:47:52;;;;;;;;;;;;;;;17.90;70.66;92593.75;2068593;69;20077;-79
2023/07/03 02:50:17;;;;;;;;;;;;;;;17.87;70.38;92595.81;2068460;69;20571;-79
2023/07/03 02:52:43;;;;;;;;;;;;;;;17.94;69.74;92596.75;2055427;70;20047;-81
2023/07/03 02:55:11;;;;;;;;;;;;;;;17.83;69.46;92598.53;2055553;69;20063;-78
2023/07/03 02:57:36;;;;;;;;;;;;;;;17.80;69.89;92597.00;2055656;70;20066;-79
2023/07/03 03:00:05;;;;;;;;;;;;;;;17.86;69.24;92602.16;2068617;69;20058;-79
2023/07/03 03:02:31;;;;;;;;;;;;;;;17.73;70.30;92592.47;2068420;69;20428;-80
2023/07/03 03:05:00;;;;;;;;;;;;;;;17.73;70.02;92593.25;2068847;69;20061;-80
2023/07/03 03:10:55;;;;;;;;;;;;;;;17.82;71.47;92602.75;2055533;69;20119;-78
2023/07/03 03:13:21;;;;;;;;;;;;;;;17.80;71.59;92599.13;2068496;69;20062;-78
2023/07/03 03:15:47;;;;;;;;;;;;;;;17.85;70.79;92600.72;2055661;70;20074;-78
2023/07/03 03:18:12;;;;;;;;;;;;;;;17.80;72.33;92607.69;2068716;69;20554;-79
2023/07/03 03:20:38;;;;;;;;;;;;;;;17.85;71.37;92612.84;2068559;69;20474;-79
2023/07/03 03:23:07;;;;;;;;;;;;;;;17.90;71.71;92605.88;2055759;69;20058;-79
2023/07/03 03:25:33;;;;;;;;;;;;;;;17.88;71.11;92613.63;2055582;70;20493;-79
2023/07/03 03:27:59;;;;;;;;;;;;;;;17.97;70.45;92607.53;2068404;69;20054;-80
2023/07/03 03:30:24;;;;;;;;;;;;;;;17.98;70.64;92614.69;2068520;69;20110;-79
2023/07/03 03:32:50;;;;;;;;;;;;;;;17.95;69.87;92613.16;2068426;69;20111;-80
2023/07/03 03:35:16;;;;;;;;;;;;;;;17.90;70.12;92617.25;2055609;70;20062;-80
2023/07/03 03:37:41;;;;;;;;;;;;;;;17.91;70.78;92620.84;2055557;70;20528;-80
2023/07/03 03:43:36;;;;;;;;;;;;;;;17.81;70.99;92617.66;2055591;69;20177;-80
2023/07/03 03:46:02;;;;;;;;;;;;;;;17.90;70.37;92610.84;2068568;69;20572;-81
2023/07/03 03:48:30;;;;;;;;;;;;;;;17.93;70.08;92610.25;2055586;70;20130;-80
2023/07/03 03:50:56;;;;;;;;;;;;;;;17.89;70.70;92610.13;2065932;69;20043;-81
2023/07/03 03:53:23;;;;;;;;;;;;;;;17.82;71.36;92614.16;2048551;70;20075;-81
2023/07/03 03:55:49;;;;;;;;;;;;;;;17.77;72.14;92610.44;2048264;70;20063;-81
2023/07/03 03:58:16;;;;;;;;;;;;;;;17.75;71.96;92610.38;2049224;70;20050;-82
2023/07/03 04:00:42;;;;;;;;;;;;;;;17.85;71.33;92609.25;2053952;70;20047;-80
2023/07/03 04:03:07;;;;;;;;;;;;;;;17.81;71.79;92609.13;2049304;70;20088;-79
2023/07/03 04:05:33;;;;;;;;;;;;;;;17.87;70.96;92607.22;2048432;70;20047;-79
2023/07/03 04:07:58;;;;;;;;;;;;;;;17.84;71.00;92608.53;2049055;70;20054;-78
2023/07/03 04:10:24;;;;;;;;;;;;;;;17.74;71.23;92613.91;2048957;70;20087;-78
2023/07/03 04:12:49;;;;;;;;;;;;;;;17.71;71.57;92613.06;2048889;70;20121;-81
2023/07/03 04:15:15;;;;;;;;;;;;;;;17.69;71.59;92613.00;2048888;69;20483;-81
2023/07/03 04:17:40;;;;;;;;;;;;;;;17.83;70.68;92618.47;2048922;69;20055;-79
2023/07/03 04:20:08;;;;;;;;;;;;;;;17.83;71.02;92617.75;2049032;70;20047;-80
2023/07/03 04:22:33;;;;;;;;;;;;;;;17.78;71.32;92622.59;2048934;70;20054;-80
2023/07/03 04:24:59;;;;;;;;;;;;;;;17.84;70.95;92628.47;2049492;70;20055;-80
2023/07/03 04:27:24;;;;;;;;;;;;;;;17.89;70.89;92624.34;2049582;70;20147;-81
2023/07/03 04:29:50;;;;;;;;;;;;;;;17.73;72.07;92630.25;2049489;70;20057;-81
2023/07/03 04:32:17;;;;;;;;;;;;;;;17.75;71.56;92621.78;2049407;69;20058;-81
2023/07/03 04:34:42;;;;;;;;;;;;;;;17.83;71.18;92617.75;2049382;70;20054;-81
2023/07/03 04:37:08;;;;;;;;;;;;;;;17.86;71.30;92622.81;2049106;70;20094;-81
2023/07/03 04:39:33;;;;;;;;;;;;;;;17.94;70.41;92619.53;2049490;70;20146;-79
2023/07/03 04:42:00;;;;;;;;;;;;;;;17.46;72.63;92617.22;2049400;70;20047;-79
2023/07/03 04:44:26;;;;;;;;;;;;;;;17.59;72.37;92626.16;2049496;70;20057;-78
2023/07/03 04:50:24;;;;;;;;;;;;;;;17.85;71.40;92617.81;2049465;70;20058;-80
2023/07/03 04:52:51;;;;;;;;;;;;;;;17.90;71.59;92620.13;2056106;70;20061;-81
2023/07/03 04:55:17;;;;;;;;;;;;;;;17.87;71.48;92615.00;2055994;70;20421;-81
2023/07/03 04:57:43;;;;;;;;;;;;;;;17.82;71.47;92619.13;2056027;69;20050;-79
2023/07/03 05:00:15;;;;;;;;;;;;;;;18.00;70.94;92620.44;2055978;70;20494;-78
2023/07/03 05:02:42;;;;;;;;;;;;;;;18.05;72.15;92627.00;2055832;69;20054;-81
2023/07/03 05:05:07;;;;;;;;;;;;;;;18.16;71.31;92625.22;2069036;69;20058;-80
2023/07/03 05:07:32;;;;;;;;;;;;;;;18.21;70.04;92626.78;2056056;70;20046;-80
2023/07/03 05:09:58;;;;;;;;;;;;;;;18.19;69.90;92621.00;2056130;70;20096;-80
2023/07/03 05:12:23;;;;;;;;;;;;;;;18.22;70.58;92628.97;2055913;69;20137;-79
2023/07/03 05:18:17;;;;;;;;;;;;;;;18.27;69.51;92624.13;2055869;69;20116;-79
2023/07/03 05:20:45;;;;;;;;;;;;;;;18.55;68.51;92621.41;2056038;69;20050;-79
2023/07/03 05:23:15;;;;;;;;;;;;;;;18.46;67.62;92631.09;2068905;69;20429;-79
2023/07/03 05:25:41;;;;;;;;;;;;;;;18.37;68.79;92633.00;2068890;69;20057;-78
2023/07/03 05:28:07;;;;;;;;;;;;;;;18.65;68.35;92629.56;2068990;69;20077;-79
2023/07/03 05:30:32;;;;;;;;;;;;;;;18.66;67.97;92631.72;2055861;70;20120;-78
2023/07/03 05:32:58;;;;;;;;;;;;;;;18.85;68.14;92626.59;2055885;70;20058;-78
2023/07/03 05:35:24;;;;;;;;;;;;;;;18.74;68.08;92625.56;2055862;70;20141;-77
2023/07/03 05:37:49;;;;;;;;;;;;;;;18.93;67.44;92632.53;2055854;70;20046;-79
2023/07/03 05:40:15;;;;;;;;;;;;;;;19.14;67.24;92625.25;2055869;70;20054;-79
2023/07/03 05:42:40;;;;;;;;;;;;;;;19.17;67.78;92630.34;2068952;69;20145;-78
2023/07/03 05:45:06;;;;;;;;;;;;;;;19.21;68.68;92624.03;2055831;70;20093;-78
2023/07/03 05:47:34;;;;;;;;;;;;;;;19.43;66.37;92636.06;2068701;69;20155;-77
2023/07/03 05:49:59;;;;;;;;;;;;;;;19.43;66.10;92635.34;2057227;70;20565;-79
2023/07/03 05:52:26;;;;;;;;;;;;;;;19.52;65.65;92643.47;2056970;70;20482;-79
2023/07/03 05:54:54;;;;;;;;;;;;;;;19.64;66.35;92648.78;2056000;69;20066;-80
2023/07/03 05:57:21;;;;;;;;;;;;;;;19.66;67.58;92639.56;2055468;70;20081;-80
2023/07/03 05:59:48;;;;;;;;;;;;;;;19.90;66.82;92637.31;2055697;70;20077;-80
2023/07/03 06:02:14;;;;;;;;;;;;;;;19.75;66.54;92635.50;2055778;69;20046;-78
2023/07/03 06:04:40;;;;;;;;;;;;;;;19.79;65.55;92642.06;2055862;69;20050;-79
2023/07/03 06:07:06;;;;;;;;;;;;;;;20.02;65.54;92643.34;2055813;70;20402;-79
2023/07/03 06:09:33;;;;;;;;;;;;;;;20.02;64.95;92639.72;2055835;69;20058;-79
2023/07/03 06:11:59;;;;;;;;;;;;;;;20.05;64.67;92639.09;2055773;70;20050;-79
2023/07/03 06:14:24;;;;;;;;;;;;;;;19.85;65.90;92643.59;2055828;69;20046;-79
2023/07/03 06:16:50;;;;;;;;;;;;;;;20.03;64.53;92641.94;2055687;70;20486;-79
2023/07/03 06:19:19;;;;;;;;;;;;;;;20.15;63.58;92640.75;2055748;70;20547;-79
2023/07/03 06:21:47;;;;;;;;;;;;;;;20.07;64.80;92638.44;2049600;70;20050;-80
2023/07/03 06:24:13;;;;;;;;;;;;;;;20.18;62.93;92639.41;2055903;70;20139;-79
2023/07/03 06:26:39;;;;;;;;;;;;;;;20.41;61.72;92640.66;2055819;70;20055;-80
2023/07/03 06:29:06;;;;;;;;;;;;;;;20.49;62.02;92640.91;2055862;70;20063;-80
2023/07/03 06:31:31;;;;;;;;;;;;;;;20.46;60.80;92640.09;2055864;69;20042;-80
2023/07/03 06:33:56;;;;;;;;;;;;;;;20.37;61.30;92641.31;2055739;70;20135;-81
2023/07/03 06:36:24;;;;;;;;;;;;;;;20.67;61.33;92641.31;2055939;69;20078;-81
2023/07/03 06:38:52;;;;;;;;;;;;;;;20.69;61.72;92637.75;2055393;70;20053;-80
2023/07/03 06:41:18;;;;;;;;;;;;;;;20.86;60.69;92633.84;2068753;69;20069;-80
2023/07/03 06:43:43;;;;;;;;;;;;;;;20.88;60.04;92641.75;2055759;70;20473;-79
2023/07/03 06:46:10;;;;;;;;;;;;;;;20.26;62.03;92643.19;2055662;69;20057;-81
2023/07/03 06:48:36;;;;;;;;;;;;;;;20.52;60.98;92634.53;2055824;70;20058;-83
2023/07/03 06:51:02;;;;;;;;;;;;;;;20.29;61.22;92643.97;2055855;70;20047;-81
2023/07/03 06:53:28;;;;;;;;;;;;;;;20.38;61.03;92642.75;2055823;69;20043;-82
2023/07/03 06:55:57;;;;;;;;;;;;;;;20.31;60.89;92636.16;2055853;70;20043;-81
2023/07/03 06:58:23;;;;;;;;;;;;;;;20.67;60.54;92629.88;2056365;70;20066;-82
2023/07/03 07:00:48;;;;;;;;;;;;;;;21.05;60.43;92624.25;2057019;70;20061;-80
2023/07/03 07:03:14;;;;;;;;;;;;;;;21.19;60.54;92620.22;2055686;69;20046;-80
2023/07/03 07:05:39;;;;;;;;;;;;;;;21.34;59.98;92629.84;2055994;69;20053;-80
2023/07/03 07:08:05;;;;;;;;;;;;;;;21.04;58.91;92625.66;2055711;70;20170;-80
2023/07/03 07:13:59;;;;;;;;;;;;;;;20.85;60.63;92615.25;2055836;69;20054;-84
2023/07/03 07:16:32;;;;;;;;;;;;;;;20.89;60.11;92612.47;2056036;70;20055;-82
2023/07/03 07:19:02;;;;;;;;;;;;;;;20.40;61.71;92622.06;2055754;70;20082;-84
2023/07/03 07:21:29;;;;;;;;;;;;;;;20.73;60.92;92612.09;2055792;69;20087;-80
2023/07/03 07:23:56;;;;;;;;;;;;;;;20.46;61.10;92616.47;2055702;70;20055;-79
2023/07/03 07:26:22;;;;;;;;;;;;;;;21.29;60.13;92612.53;2055829;70;20050;-80
2023/07/03 07:28:48;;;;;;;;;;;;;;;21.08;59.87;92618.56;2055669;69;20054;-78
2023/07/03 07:31:18;;;;;;;;;;;;;;;21.45;60.02;92620.03;2055827;70;20061;-80
2023/07/03 07:33:43;;;;;;;;;;;;;;;20.95;60.41;92618.31;2055603;70;20082;-79
2023/07/03 07:36:12;;;;;;;;;;;;;;;20.98;60.26;92613.34;2055598;70;20090;-80
2023/07/03 07:38:38;;;;;;;;;;;;;;;20.71;60.80;92604.22;2055742;70;20474;-80
2023/07/03 07:41:04;;;;;;;;;;;;;;;20.96;60.29;92591.13;2068640;69;20052;-81
2023/07/03 07:43:29;;;;;;;;;;;;;;;21.68;59.11;92606.88;2055733;70;20046;-81
2023/07/03 07:45:55;;;;;;;;;;;;;;;21.85;58.87;92602.13;2055685;69;20053;-81
2023/07/03 07:48:20;;;;;;;;;;;;;;;22.00;57.94;92601.69;2055748;70;20057;-82
2023/07/03 07:50:46;;;;;;;;;;;;;;;22.24;58.56;92606.41;2055568;70;20134;-80
2023/07/03 07:53:11;;;;;;;;;;;;;;;22.47;57.16;92604.59;2055797;70;20058;-83
2023/07/03 07:55:38;;;;;;;;;;;;;;;22.18;56.34;92595.56;2055803;70;20046;-81
2023/07/03 07:58:03;;;;;;;;;;;;;;;22.65;55.97;92599.13;2055760;70;20224;-79
2023/07/03 08:00:29;;;;;;;;;;;;;;;23.00;55.75;92593.88;2056114;70;20050;-80
2023/07/03 08:02:54;;;;;;;;;;;;;;;23.04;55.42;92597.53;2068980;69;20046;-78
2023/07/03 08:05:21;;;;;;;;;;;;;;;23.10;54.84;92587.56;2056131;70;20061;-81
2023/07/03 08:07:48;;;;;;;;;;;;;;;22.71;55.94;92595.63;2056226;70;20218;-80
2023/07/03 08:13:43;;;;;;;;;;;;;;;23.14;53.63;92584.72;2055778;69;20081;-79
2023/07/03 08:16:09;;;;;;;;;;;;;;;23.24;54.29;92581.97;2056006;69;20058;-78
2023/07/03 08:18:35;;;;;;;;;;;;;;;23.38;55.18;92584.28;2055929;69;20163;-80
2023/07/03 08:21:00;;;;;;;;;;;;;;;23.10;53.80;92584.69;2056197;70;20569;-79
2023/07/03 08:23:26;;;;;;;;;;;;;;;23.59;53.25;92583.06;2056059;70;20054;-80
2023/07/03 08:25:53;;;;;;;;;;;;;;;23.13;52.17;92578.25;2055969;70;20165;-79
2023/07/03 08:28:18;;;;;;;;;;;;;;;24.28;51.57;92583.75;2056160;70;20437;-77
2023/07/03 08:34:12;;;;;;;;;;;;;;;23.98;50.98;92566.25;2056047;69;20157;-78
2023/07/03 08:36:38;;;;;;;;;;;;;;;24.30;49.88;92568.66;2055737;70;20050;-81
2023/07/03 08:39:04;;;;;;;;;;;;;;;23.81;50.62;92565.38;2055952;70;20111;-80
2023/07/03 08:41:37;;;;;;;;;;;;;;;24.01;50.30;92565.56;2055991;70;20061;-80
2023/07/03 08:44:03;;;;;;;;;;;;;;;24.75;48.71;92566.81;2055945;69;20145;-80
2023/07/03 08:46:31;;;;;;;;;;;;;;;25.23;48.27;92565.63;2068668;69;20054;-79
2023/07/03 08:49:03;;;;;;;;;;;;;;;25.49;49.11;92559.25;2068951;69;20042;-80
2023/07/03 08:51:30;;;;;;;;;;;;;;;25.30;48.51;92558.47;2056027;70;20577;-80
2023/07/03 08:53:59;;;;;;;;;;;;;;;25.43;46.09;92556.38;2056020;69;20049;-79
2023/07/03 08:56:28;;;;;;;;;;;;;;;25.83;47.29;92552.84;2055981;70;20122;-79
2023/07/03 08:58:55;;;;;;;;;;;;;;;26.66;45.18;92556.47;2055960;70;20087;-79
2023/07/03 09:01:29;;;;;;;;;;;;;;;25.53;44.02;92550.63;2056044;70;20151;-80
2023/07/03 09:03:58;;;;;;;;;;;;;;;26.93;43.90;92554.25;2055878;69;20065;-78
2023/07/03 09:06:40;;;;;;;;;;;;;;;27.29;43.19;92550.56;2056176;69;20054;-77
2023/07/03 09:09:12;;;;;;;;;;;;;;;27.42;42.95;92554.84;2055935;70;20046;-79
2023/07/03 09:11:42;;;;;;;;;;;;;;;27.84;42.80;92556.09;2056055;70;20146;-79
2023/07/03 09:14:11;;;;;;;;;;;;;;;27.03;41.33;92554.97;2056074;69;20057;-78
2023/07/03 09:16:38;;;;;;;;;;;;;;;27.27;41.08;92556.34;2056159;70;20476;-80
2023/07/03 09:19:08;;;;;;;;;;;;;;;26.71;41.73;92552.88;2055931;70;20050;-79
2023/07/03 09:21:35;;;;;;;;;;;;;;;27.19;40.65;92556.38;2055976;70;20077;-79
2023/07/03 09:24:24;;;;;;;;;;;;;;;27.53;42.11;92555.50;2055931;69;20061;-80
2023/07/03 09:26:49;;;;;;;;;;;;;;;28.98;39.95;92551.59;2055900;70;20047;-79
2023/07/03 09:29:15;;;;;;;;;;;;;;;27.70;38.76;92559.75;2057259;70;20059;-78
2023/07/03 09:31:41;;;;;;;;;;;;;;;27.54;38.45;92549.00;2057234;69;20066;-81
2023/07/03 09:34:08;;;;;;;;;;;;;;;28.05;39.84;92545.13;2055860;70;20049;-83
2023/07/03 09:36:40;;;;;;;;;;;;;;;28.83;37.85;92545.19;2056075;69;20054;-80
2023/07/03 09:39:12;;;;;;;;;;;;;;;29.07;37.74;92553.66;2055932;70;20145;-79
2023/07/03 09:41:40;;;;;;;;;;;;;;;28.51;37.51;92546.22;2055673;70;20066;-78
2023/07/03 09:44:06;;;;;;;;;;;;;;;28.51;36.55;92552.00;2068802;69;20497;-80
2023/07/03 09:46:32;;;;;;;;;;;;;;;27.77;36.68;92551.81;2055857;70;20054;-80
2023/07/03 09:49:00;;;;;;;;;;;;;;;28.18;37.90;92545.72;2055808;70;20054;-80
2023/07/03 09:51:27;;;;;;;;;;;;;;;29.31;37.39;92538.16;2055724;70;20054;-77
2023/07/03 09:53:53;;;;;;;;;;;;;;;28.98;35.60;92543.59;2055848;70;20453;-78
2023/07/03 09:56:25;;;;;;;;;;;;;;;29.16;35.72;92536.91;2055987;70;20498;-77
2023/07/03 09:58:52;;;;;;;;;;;;;;;30.72;35.19;92529.63;2055844;70;20061;-79
2023/07/03 10:01:23;;;;;;;;;;;;;;;28.64;36.34;92533.06;2055627;70;20086;-80
2023/07/03 10:04:00;;;;;;;;;;;;;;;29.67;36.17;92532.66;2055714;69;20149;-81
2023/07/03 10:06:26;;;;;;;;;;;;;;;30.37;35.32;92533.09;2055990;70;20148;-80
2023/07/03 10:08:51;;;;;;;;;;;;;;;31.81;33.50;92538.44;2055926;69;20050;-81
2023/07/03 10:11:25;;;;;;;;;;;;;;;32.02;32.64;92529.97;2055928;69;20148;-78
2023/07/03 10:13:52;;;;;;;;;;;;;;;30.60;33.63;92539.97;2055830;70;20137;-80
2023/07/03 10:16:19;;;;;;;;;;;;;;;32.29;32.18;92533.00;2056008;70;20142;-83
2023/07/03 10:18:48;;;;;;;;;;;;;;;32.83;30.91;92530.25;2055766;69;20058;-81
2023/07/03 10:21:16;;;;;;;;;;;;;;;32.70;30.05;92523.28;2055712;70;20085;-81
2023/07/03 10:23:44;;;;;;;;;;;;;;;33.19;31.12;92516.19;2055841;69;20100;-80
2023/07/03 10:26:16;;;;;;;;;;;;;;;33.03;29.29;92516.63;2055795;70;20604;-80
2023/07/03 10:28:46;;;;;;;;;;;;;;;32.82;30.27;92511.31;2055763;70;20066;-80
2023/07/03 10:31:18;;;;;;;;;;;;;;;34.66;28.07;92516.97;2055795;70;20047;-80
2023/07/03 10:33:46;;;;;;;;;;;;;;;34.67;28.51;92504.50;2055672;69;20581;-81
2023/07/03 10:36:15;;;;;;;;;;;;;;;36.07;27.01;92512.75;2055740;70;20050;-78
2023/07/03 10:38:55;;;;;;;;;;;;;;;35.15;27.59;92510.22;2055811;69;20120;-76
2023/07/03 10:41:27;;;;;;;;;;;;;;;35.14;27.38;92515.34;2055771;69;20062;-77
2023/07/03 10:43:55;;;;;;;;;;;;;;;37.49;25.54;92509.16;2055889;70;20061;-77
2023/07/03 10:46:32;;;;;;;;;;;;;;;38.83;23.37;92525.72;2055931;70;20490;-76
2023/07/03 10:49:00;;;;;;;;;;;;;;;39.77;22.27;92521.00;2055774;69;20054;-77
2023/07/03 10:51:34;;;;;;;;;;;;;;;41.17;20.84;92523.59;2068746;69;20055;-78
2023/07/03 10:54:05;;;;;;;;;;;;;;;39.45;23.18;92516.75;2055880;70;20062;-76
2023/07/03 11:00:00;;;;;;;;;;;;;;;39.67;21.60;92506.78;2055757;69;20605;-79
2023/07/03 11:02:32;;;;;;;;;;;;;;;40.38;21.43;92505.91;2055595;69;20054;-77
2023/07/03 11:05:09;;;;;;;;;;;;;;;40.42;20.11;92516.06;2068725;69;20058;-80
2023/07/03 11:07:40;;;;;;;;;;;;;;;39.90;19.72;92509.97;2055709;70;20115;-76
2023/07/03 11:10:16;;;;;;;;;;;;;;;42.25;20.37;92507.56;2055699;70;20050;-78
2023/07/03 11:12:47;;;;;;;;;;;;;;;43.92;18.38;92508.41;2055689;70;20086;-80
2023/07/03 11:15:17;;;;;;;;;;;;;;;44.67;17.98;92498.69;2055725;70;20502;-81
2023/07/03 11:17:46;;;;;;;;;;;;;;;43.34;18.17;92493.75;2055788;70;20169;-79
2023/07/03 11:20:19;;;;;;;;;;;;;;;44.93;18.03;92504.94;2056246;70;20142;-77
2023/07/03 11:23:03;;;;;;;;;;;;;;;46.81;15.63;92503.81;2055828;70;20111;-77
2023/07/03 11:25:41;;;;;;;;;;;;;;;44.73;16.95;92495.28;2055717;69;20143;-82
2023/07/03 11:28:15;;;;;;;;;;;;;;;46.67;15.18;92484.16;2055667;70;20429;-81
2023/07/03 11:30:42;;;;;;;;;;;;;;;44.05;16.41;92464.47;2055649;70;20058;-80
2023/07/03 11:33:08;;;;;;;;;;;;;;;46.97;16.51;92480.25;2055615;70;20050;-81
2023/07/03 11:35:34;;;;;;;;;;;;;;;47.09;15.39;92482.22;2055751;69;20058;-80
2023/07/03 11:38:05;;;;;;;;;;;;;;;46.03;15.20;92488.44;2055786;70;20050;-80
2023/07/03 11:40:33;;;;;;;;;;;;;;;44.59;15.78;92473.97;2055754;69;20130;-80
2023/07/03 11:43:16;;;;;;;;;;;;;;;45.43;15.28;92467.78;2057262;69;20065;-81
2023/07/03 11:46:03;;;;;;;;;;;;;;;46.77;14.98;92473.69;2055847;70;20050;-80
2023/07/03 11:48:37;;;;;;;;;;;;;;;46.33;16.07;92461.53;2068703;69;20055;-80
2023/07/03 11:51:03;;;;;;;;;;;;;;;47.92;15.11;92464.84;2055535;70;20076;-80
2023/07/03 11:53:29;;;;;;;;;;;;;;;48.26;15.64;92464.16;2055693;69;20059;-80
2023/07/03 11:55:55;;;;;;;;;;;;;;;47.56;14.91;92457.44;2055628;70;20489;-80
2023/07/03 11:58:24;;;;;;;;;;;;;;;45.42;16.63;92448.56;2055644;69;20050;-80
2023/07/03 12:01:09;;;;;;;;;;;;;;;47.73;14.36;92448.56;2055649;70;20052;-83
2023/07/03 12:03:47;;;;;;;;;;;;;;;47.28;14.49;92445.66;2055415;69;20145;-81
2023/07/03 12:06:34;;;;;;;;;;;;;;;45.20;15.62;92435.41;2055598;70;20081;-80
2023/07/03 12:09:21;;;;;;;;;;;;;;;45.57;15.04;92445.91;2068595;69;20146;-80
2023/07/03 12:12:06;;;;;;;;;;;;;;;45.71;14.70;92438.13;2055489;70;20093;-80
2023/07/03 12:15:12;;;;;;;;;;;;;;;;;;;;;
2023/07/03 12:17:34;;;;;;;;;;;;;;;38.15;21.12;92415.81;2056097;69;20478;-80
2023/07/03 12:20:06;;;;;;;;;;;;;;;35.43;24.43;92411.22;2055603;70;20153;-80
2023/07/03 12:22:38;;;;;;;;;;;;;;;36.97;23.47;92407.22;2055622;70;20148;-82
2023/07/03 12:25:05;;;;;;;;;;;;;;;35.01;24.90;92408.38;2065899;69;20121;-84
2023/07/03 12:27:31;;;;;;;;;;;;;;;35.43;24.41;92400.22;2055656;69;20042;-81
2023/07/03 12:29:57;;;;;;;;;;;;;;;35.26;24.82;92400.09;2055554;69;20061;-79
2023/07/03 12:32:27;;;;;;;;;;;;;;;33.42;26.96;92393.75;2055383;70;20094;-79
2023/07/03 12:34:53;;;;;;;;;;;;;;;33.75;27.26;92389.88;2055590;70;20050;-80
2023/07/03 12:37:24;;;;;;;;;;;;;;;33.18;29.84;92394.50;2055711;70;20095;-84
2023/07/03 12:39:50;;;;;;;;;;;;;;;33.63;27.58;92388.03;2055687;70;20054;-80
2023/07/03 12:42:20;;;;;;;;;;;;;;;32.85;27.42;92404.13;2055564;70;20107;-77
2023/07/03 12:44:46;;;;;;;;;;;;;;;31.47;28.90;92387.91;2055761;69;20058;-79
2023/07/03 12:47:13;;;;;;;;;;;;;;;32.28;29.01;92382.34;2056207;69;20409;-81
2023/07/03 12:49:46;;;;;;;;;;;;;;;32.09;28.27;92388.63;2056373;69;20053;-79
2023/07/03 12:52:13;;;;;;;;;;;;;;;31.44;29.45;92375.63;2055930;70;20054;-79
2023/07/03 12:54:38;;;;;;;;;;;;;;;32.26;29.61;92382.41;2055985;69;20531;-79
2023/07/03 12:57:06;;;;;;;;;;;;;;;30.62;29.93;92373.66;2056112;70;20054;-84
2023/07/03 12:59:33;;;;;;;;;;;;;;;31.09;31.15;92369.81;2056070;69;20517;-82
2023/07/03 13:01:58;;;;;;;;;;;;;;;31.45;30.20;92376.31;2056028;69;20146;-82
2023/07/03 13:04:25;;;;;;;;;;;;;;;30.75;31.56;92366.16;2055941;70;20500;-82
2023/07/03 13:06:51;;;;;;;;;;;;;;;30.88;31.08;92381.88;2056062;70;20106;-82
2023/07/03 13:09:16;;;;;;;;;;;;;;;30.17;31.60;92367.97;2069972;69;20058;-82
2023/07/03 13:11:44;;;;;;;;;;;;;;;30.09;32.41;92383.31;2059670;70;20110;-82
2023/07/03 13:14:14;;;;;;;;;;;;;;;29.21;33.07;92375.25;2056168;69;20061;-82
2023/07/03 13:16:40;;;;;;;;;;;;;;;30.25;31.85;92373.63;2056766;70;20050;-83
2023/07/03 13:19:06;;;;;;;;;;;;;;;29.34;32.50;92385.22;2056440;70;20442;-82
2023/07/03 13:21:33;;;;;;;;;;;;;;;30.33;32.00;92380.00;2069053;69;20046;-82
2023/07/03 13:24:10;;;;;;;;;;;;;;;29.43;33.44;92374.94;2056026;69;20054;-82
2023/07/03 13:26:36;;;;;;;;;;;;;;;29.07;33.56;92371.09;2055930;69;20497;-82
2023/07/03 13:29:03;;;;;;;;;;;;;;;28.98;34.16;92372.66;2056013;70;20161;-82
2023/07/03 13:31:33;;;;;;;;;;;;;;;29.85;32.70;92361.94;2055907;69;20062;-82
2023/07/03 13:33:58;;;;;;;;;;;;;;;29.85;32.60;92373.56;2055872;69;20050;-82